Time;durP1;ratioP1;P1;durP2;ratioP2;P2;SDS_P1;SDS_P2;PMS_P1;PMS_P2;Temp;Humidity;BMP_temperature;BMP_pressure;BME280_temperature;BME280_humidity;BME280_pressure;Samples;Min_cycle;Max_cycle;Signal;HPM_P1;HPM_P2
2020/12/24 00:00:56;;;;;;;0.60;0.60;;;9.10;99.90;;;;;;4956824;28;20636;-68
2020/12/24 00:03:21;;;;;;;0.63;0.63;;;9.20;99.90;;;;;;4956967;28;20180;-68
2020/12/24 00:05:47;;;;;;;0.40;0.40;;;9.10;99.90;;;;;;4955379;29;20212;-68
2020/12/24 00:08:13;;;;;;;0.63;0.50;;;9.00;99.90;;;;;;4956580;28;20197;-68
2020/12/24 00:10:39;;;;;;;1.70;1.00;;;9.00;99.90;;;;;;4956739;28;20404;-68
2020/12/24 00:13:05;;;;;;;0.73;0.57;;;8.90;99.90;;;;;;4956583;28;20204;-68
2020/12/24 00:15:30;;;;;;;0.50;0.50;;;8.80;99.90;;;;;;4956886;28;20412;-67
2020/12/24 00:17:56;;;;;;;0.70;0.50;;;8.60;99.90;;;;;;4956518;28;20487;-68
2020/12/24 00:20:21;;;;;;;0.50;0.50;;;8.50;99.90;;;;;;4956712;28;20181;-68
2020/12/24 00:22:47;;;;;;;0.50;0.50;;;8.60;99.90;;;;;;4956301;28;20172;-68
2020/12/24 00:25:13;;;;;;;0.50;0.50;;;8.50;99.90;;;;;;4956411;28;20261;-68
2020/12/24 00:27:38;;;;;;;0.57;0.57;;;8.60;99.90;;;;;;4956340;28;20545;-68
2020/12/24 00:30:05;;;;;;;0.50;0.50;;;8.60;99.90;;;;;;4956490;28;20200;-68
2020/12/24 00:32:31;;;;;;;0.50;0.40;;;8.50;99.90;;;;;;4956264;28;20188;-68
2020/12/24 00:34:56;;;;;;;0.73;0.70;;;8.50;99.90;;;;;;4956476;28;20652;-68
2020/12/24 00:37:22;;;;;;;0.40;0.40;;;8.40;99.90;;;;;;4956246;28;20435;-68
2020/12/24 00:39:47;;;;;;;0.40;0.40;;;8.50;99.90;;;;;;4956163;28;20192;-68
2020/12/24 00:42:13;;;;;;;0.50;0.40;;;8.60;99.90;;;;;;4956083;28;20179;-68
2020/12/24 00:44:39;;;;;;;0.40;0.40;;;8.50;99.90;;;;;;4956180;28;20228;-68
2020/12/24 00:47:05;;;;;;;0.40;0.40;;;8.50;99.90;;;;;;4956140;28;20271;-68
2020/12/24 00:49:30;;;;;;;0.40;0.40;;;8.60;99.90;;;;;;4956031;28;20173;-67
2020/12/24 00:51:56;;;;;;;0.50;0.40;;;8.60;99.90;;;;;;4955918;28;20180;-68
2020/12/24 00:54:22;;;;;;;0.40;0.40;;;8.50;99.90;;;;;;4956189;28;20642;-68
2020/12/24 00:56:47;;;;;;;0.40;0.40;;;8.40;99.90;;;;;;4956090;28;20205;-68
2020/12/24 00:59:13;;;;;;;0.40;0.40;;;8.40;99.90;;;;;;4956146;28;20412;-68
2020/12/24 01:01:39;;;;;;;0.50;0.50;;;8.20;99.90;;;;;;4955880;28;20259;-68
2020/12/24 01:04:05;;;;;;;0.50;0.50;;;8.00;99.90;;;;;;4955728;28;20212;-68
2020/12/24 01:06:31;;;;;;;0.50;0.50;;;8.10;99.90;;;;;;4955862;28;20197;-68
2020/12/24 01:08:56;;;;;;;0.40;0.37;;;8.20;99.90;;;;;;4956140;28;20259;-68
2020/12/24 01:11:28;;;;;;;0.60;0.60;;;8.20;99.90;;;;;;4955742;28;20259;-67
2020/12/24 01:13:54;;;;;;;0.75;0.57;;;8.10;99.90;;;;;;4955812;28;20176;-68
2020/12/24 01:16:20;;;;;;;0.45;0.45;;;7.70;99.90;;;;;;4955053;28;20187;-68
2020/12/24 01:18:46;;;;;;;1.27;0.63;;;7.60;99.90;;;;;;4955640;28;20694;-68
2020/12/24 01:21:12;;;;;;;0.40;0.40;;;7.80;99.90;;;;;;4955378;28;20169;-68
2020/12/24 01:23:38;;;;;;;0.40;0.40;;;7.90;99.90;;;;;;4955749;28;20188;-67
2020/12/24 01:26:07;;;;;;;0.50;0.50;;;7.90;99.90;;;;;;4955450;28;20206;-68
2020/12/24 01:28:32;;;;;;;0.40;0.40;;;8.00;99.90;;;;;;4955511;28;20646;-67
2020/12/24 01:30:58;;;;;;;0.93;0.80;;;8.00;99.90;;;;;;4955458;28;20181;-68
2020/12/24 01:33:28;;;;;;;1.33;0.50;;;8.00;99.90;;;;;;4955655;28;20511;-68
2020/12/24 01:35:54;;;;;;;0.40;0.40;;;8.00;99.90;;;;;;4955473;28;20179;-68
2020/12/24 01:38:20;;;;;;;0.50;0.50;;;7.90;99.90;;;;;;4955448;28;20700;-68
2020/12/24 01:40:46;;;;;;;0.43;0.43;;;7.90;99.90;;;;;;4955480;28;20408;-68
2020/12/24 01:43:12;;;;;;;1.25;1.15;;;7.90;99.90;;;;;;4955305;28;20175;-68
2020/12/24 01:45:38;;;;;;;1.03;0.50;;;7.80;99.90;;;;;;4955505;28;20212;-68
2020/12/24 01:48:03;;;;;;;0.87;0.50;;;7.60;99.90;;;;;;4955463;28;20274;-68
2020/12/24 01:50:29;;;;;;;0.77;0.60;;;7.50;99.90;;;;;;4955539;28;20171;-68
2020/12/24 01:52:57;;;;;;;0.50;0.40;;;7.50;99.90;;;;;;4955167;28;20204;-68
2020/12/24 01:55:23;;;;;;;0.70;0.70;;;7.50;99.90;;;;;;4955280;28;20172;-68
2020/12/24 01:57:51;;;;;;;0.50;0.50;;;7.40;99.90;;;;;;4955167;28;20195;-68
2020/12/24 02:00:18;;;;;;;0.80;0.65;;;7.40;99.90;;;;;;4955408;28;20177;-68
2020/12/24 02:02:43;;;;;;;0.50;0.50;;;7.40;99.90;;;;;;4954973;28;20225;-68
2020/12/24 02:05:09;;;;;;;0.37;0.37;;;7.10;99.90;;;;;;4955102;28;20290;-68
2020/12/24 02:07:35;;;;;;;0.77;0.50;;;7.00;99.90;;;;;;4955189;28;20589;-68
2020/12/24 02:10:01;;;;;;;0.85;0.85;;;7.00;99.90;;;;;;4955222;28;20177;-68
2020/12/24 02:12:27;;;;;;;0.68;0.68;;;6.90;99.90;;;;;;4953803;29;20321;-67
2020/12/24 02:14:53;;;;;;;0.60;0.50;;;7.00;99.90;;;;;;4955099;28;20202;-68
2020/12/24 02:17:18;;;;;;;1.07;0.67;;;7.00;99.90;;;;;;4955132;28;20758;-68
2020/12/24 02:19:44;;;;;;;0.43;0.43;;;7.00;99.90;;;;;;4955042;28;20178;-68
2020/12/24 02:22:10;;;;;;;0.53;0.53;;;7.10;99.90;;;;;;4954920;28;20179;-68
2020/12/24 02:24:40;;;;;;;0.50;0.50;;;7.00;99.90;;;;;;4955053;28;20213;-68
2020/12/24 02:27:06;;;;;;;1.95;0.85;;;7.00;99.90;;;;;;4955842;28;20190;-67
2020/12/24 02:29:32;;;;;;;1.03;0.60;;;7.00;99.90;;;;;;4958635;28;20676;-68
2020/12/24 02:31:57;;;;;;;0.80;0.57;;;7.00;99.90;;;;;;4958485;28;20588;-67
2020/12/24 02:34:23;;;;;;;0.40;0.40;;;6.90;99.90;;;;;;4958546;28;20248;-68
2020/12/24 02:36:49;;;;;;;0.60;0.60;;;6.90;99.90;;;;;;4958390;28;20601;-68
2020/12/24 02:39:15;;;;;;;0.70;0.60;;;7.00;99.90;;;;;;4958367;28;20258;-68
2020/12/24 02:41:40;;;;;;;0.40;0.40;;;7.10;99.90;;;;;;4958340;28;20392;-67
2020/12/24 02:44:06;;;;;;;0.63;0.50;;;7.10;99.90;;;;;;4958515;28;20186;-67
2020/12/24 02:46:32;;;;;;;0.60;0.60;;;6.90;99.90;;;;;;4958176;28;20433;-68
2020/12/24 02:48:57;;;;;;;0.60;0.50;;;7.00;99.90;;;;;;4958301;28;20166;-68
2020/12/24 02:51:23;;;;;;;6.53;0.87;;;7.10;99.90;;;;;;4958071;28;20618;-69
2020/12/24 02:53:49;;;;;;;0.50;0.50;;;6.90;99.90;;;;;;4958106;28;20636;-68
2020/12/24 02:56:15;;;;;;;2.83;0.73;;;6.90;99.90;;;;;;4958168;28;20166;-68
2020/12/24 02:58:40;;;;;;;0.60;0.60;;;6.80;99.90;;;;;;4958116;28;20973;-68
2020/12/24 03:01:06;;;;;;;1.40;1.30;;;6.80;99.90;;;;;;4958044;28;20261;-67
2020/12/24 03:03:32;;;;;;;0.50;0.50;;;6.70;99.90;;;;;;4958207;28;20636;-68
2020/12/24 03:05:57;;;;;;;2.07;0.80;;;6.70;99.90;;;;;;4957897;28;20208;-67
2020/12/24 03:08:23;;;;;;;0.60;0.60;;;6.50;99.90;;;;;;4957891;28;20660;-67
2020/12/24 03:10:49;;;;;;;0.70;0.70;;;6.50;99.90;;;;;;4957935;28;20198;-67
2020/12/24 03:13:15;;;;;;;0.70;0.70;;;6.40;99.90;;;;;;4957806;28;20177;-67
2020/12/24 03:15:40;;;;;;;4.50;1.00;;;6.40;99.90;;;;;;4956678;28;20256;-68
2020/12/24 03:18:06;;;;;;;0.40;0.40;;;6.50;99.90;;;;;;4957665;28;20196;-68
2020/12/24 03:20:32;;;;;;;4.23;1.03;;;6.40;99.90;;;;;;4957897;28;20177;-67
2020/12/24 03:22:57;;;;;;;0.97;0.63;;;6.40;99.90;;;;;;4957577;28;20170;-68
2020/12/24 03:25:23;;;;;;;0.77;0.77;;;6.40;99.90;;;;;;4957644;28;20709;-68
2020/12/24 03:27:49;;;;;;;0.70;0.70;;;6.40;99.90;;;;;;4957651;28;20245;-68
2020/12/24 03:30:14;;;;;;;3.13;0.67;;;6.40;99.90;;;;;;4957498;28;20166;-68
2020/12/24 03:32:40;;;;;;;1.07;0.70;;;6.40;99.90;;;;;;4957344;28;20177;-68
2020/12/24 03:35:06;;;;;;;1.93;1.00;;;6.50;99.90;;;;;;4957479;28;20544;-68
2020/12/24 03:37:32;;;;;;;0.88;0.77;;;6.60;99.90;;;;;;4957173;28;20688;-67
2020/12/24 03:39:58;;;;;;;3.50;0.70;;;6.50;99.90;;;;;;4956649;28;20190;-68
2020/12/24 03:42:24;;;;;;;1.70;0.70;;;6.60;99.90;;;;;;4957121;28;20177;-67
2020/12/24 03:44:50;;;;;;;3.80;0.80;;;6.60;99.90;;;;;;4957313;28;20213;-67
2020/12/24 03:47:16;;;;;;;3.80;1.00;;;6.80;99.90;;;;;;4957275;28;20197;-67
2020/12/24 03:49:41;;;;;;;2.50;0.63;;;6.70;99.90;;;;;;4957528;28;20416;-67
2020/12/24 03:52:07;;;;;;;1.47;0.70;;;6.70;99.90;;;;;;4957179;28;20208;-68
2020/12/24 03:54:33;;;;;;;0.50;0.50;;;6.70;99.90;;;;;;4957290;28;20178;-67
2020/12/24 03:56:58;;;;;;;0.50;0.50;;;6.60;99.90;;;;;;4957024;28;20261;-67
2020/12/24 03:59:24;;;;;;;0.83;0.40;;;6.20;99.90;;;;;;4956962;28;20551;-67
2020/12/24 04:01:50;;;;;;;0.70;0.70;;;6.40;99.90;;;;;;4956917;28;20208;-68
2020/12/24 04:04:16;;;;;;;4.32;0.80;;;6.50;99.90;;;;;;4956870;28;20201;-68
2020/12/24 04:06:42;;;;;;;2.53;1.20;;;6.80;99.90;;;;;;4956772;28;20285;-68
2020/12/24 04:09:07;;;;;;;1.33;1.17;;;6.90;99.90;;;;;;4956865;28;20178;-67
2020/12/24 04:11:33;;;;;;;0.60;0.60;;;7.00;99.90;;;;;;4956695;28;20174;-67
2020/12/24 04:13:58;;;;;;;0.70;0.70;;;6.90;99.90;;;;;;4956849;28;20209;-68
2020/12/24 04:16:25;;;;;;;2.40;0.90;;;6.90;99.90;;;;;;4956567;28;20197;-68
2020/12/24 04:18:50;;;;;;;1.00;0.80;;;6.70;99.90;;;;;;4956811;28;20185;-67
2020/12/24 04:21:16;;;;;;;7.43;1.47;;;6.60;99.90;;;;;;4956428;29;20209;-67
2020/12/24 04:23:42;;;;;;;1.83;1.00;;;6.50;99.90;;;;;;4956654;28;20623;-67
2020/12/24 04:26:08;;;;;;;0.60;0.50;;;6.60;99.90;;;;;;4956510;28;20252;-67
2020/12/24 04:28:34;;;;;;;1.10;0.80;;;6.50;99.90;;;;;;4956394;28;20197;-67
2020/12/24 04:31:02;;;;;;;1.77;1.17;;;6.50;99.90;;;;;;4956473;28;20166;-68
2020/12/24 04:33:27;;;;;;;3.30;0.93;;;6.50;99.90;;;;;;4956579;28;20232;-68
2020/12/24 04:35:53;;;;;;;3.13;0.97;;;6.50;99.90;;;;;;4956381;28;20539;-68
2020/12/24 04:38:19;;;;;;;3.35;0.70;;;6.50;99.90;;;;;;4956079;28;20209;-67
2020/12/24 04:40:51;;;;;;;0.50;0.50;;;6.40;99.90;;;;;;4956376;28;20181;-68
2020/12/24 04:43:17;;;;;;;0.45;0.45;;;6.60;99.90;;;;;;4956274;28;20635;-67
2020/12/24 04:45:43;;;;;;;0.67;0.67;;;6.40;99.90;;;;;;4956304;28;20233;-68
2020/12/24 04:48:09;;;;;;;1.10;1.00;;;6.40;99.90;;;;;;4956192;28;20481;-67
2020/12/24 04:50:39;;;;;;;0.52;0.52;;;6.50;99.90;;;;;;4955279;28;20496;-68
2020/12/24 04:53:07;;;;;;;3.53;0.93;;;6.60;99.90;;;;;;4955798;28;20245;-68
2020/12/24 04:55:33;;;;;;;1.95;1.38;;;6.70;99.90;;;;;;4956173;28;20171;-67
2020/12/24 04:58:00;;;;;;;1.37;0.60;;;6.70;99.90;;;;;;4955789;28;20216;-67
2020/12/24 05:00:26;;;;;;;5.35;0.90;;;6.80;99.90;;;;;;4956306;28;20173;-68
2020/12/24 05:03:06;;;;;;;1.25;0.47;;;6.60;99.90;;;;;;4955818;28;20181;-68
2020/12/24 05:05:33;;;;;;;1.75;0.95;;;6.60;99.90;;;;;;4955863;28;20221;-68
2020/12/24 05:08:02;;;;;;;1.95;0.73;;;6.60;99.90;;;;;;4955679;28;20576;-68
2020/12/24 05:10:27;;;;;;;3.85;1.20;;;6.70;99.90;;;;;;4955756;28;20193;-68
2020/12/24 05:12:53;;;;;;;0.80;0.80;;;6.70;99.90;;;;;;4955664;28;20661;-67
2020/12/24 05:15:30;;;;;;;1.83;1.00;;;6.70;99.90;;;;;;4955764;28;20289;-68
2020/12/24 05:18:15;;;;;;;8.48;1.35;;;6.80;99.90;;;;;;4955659;28;20659;-67
2020/12/24 05:20:42;;;;;;;2.08;0.80;;;6.70;99.90;;;;;;4955742;28;20272;-67
2020/12/24 05:23:15;;;;;;;3.45;1.20;;;6.80;99.90;;;;;;4954172;28;20651;-68
2020/12/24 05:25:43;;;;;;;1.90;1.27;;;6.80;99.90;;;;;;4955535;28;20213;-67
2020/12/24 05:28:28;;;;;;;2.05;1.48;;;7.00;99.90;;;;;;4955670;28;20191;-68
2020/12/24 05:30:55;;;;;;;3.10;1.60;;;6.80;99.90;;;;;;4955480;28;20178;-67
2020/12/24 05:33:33;;;;;;;2.08;1.40;;;6.90;99.90;;;;;;4955460;28;20178;-68
2020/12/24 05:36:19;;;;;;;3.05;0.80;;;6.90;99.90;;;;;;4955455;28;20188;-68
2020/12/24 05:38:46;;;;;;;1.48;0.80;;;6.90;99.90;;;;;;4955261;28;20715;-68
2020/12/24 05:41:37;;;;;;;3.70;1.02;;;6.90;99.90;;;;;;4955415;28;20608;-68
2020/12/24 05:44:12;;;;;;;1.95;1.73;;;6.90;99.90;;;;;;4955521;28;20169;-68
2020/12/24 05:46:40;;;;;;;2.05;0.90;;;6.80;99.90;;;;;;4955150;28;20193;-67
2020/12/24 05:49:24;;;;;;;1.05;0.90;;;6.80;99.90;;;;;;4955364;28;20174;-67
2020/12/24 05:51:56;;;;;;;2.45;0.80;;;6.70;99.90;;;;;;4955235;28;20177;-68
2020/12/24 05:54:22;;;;;;;1.85;0.90;;;6.80;99.90;;;;;;4955320;28;20224;-67
2020/12/24 05:56:47;;;;;;;1.43;0.60;;;6.80;99.90;;;;;;4953991;28;20209;-67
2020/12/24 05:59:16;;;;;;;1.40;1.00;;;6.80;99.90;;;;;;4955228;28;20173;-67
2020/12/24 06:02:09;;;;;;;1.83;0.65;;;6.90;99.90;;;;;;4955153;28;20522;-67
2020/12/24 06:07:12;;;;;;;1.63;0.77;;;6.80;99.90;;;;;;4959005;28;20237;-67
2020/12/24 06:09:40;;;;;;;1.15;1.05;;;6.90;99.90;;;;;;4959332;28;20177;-68
2020/12/24 06:12:22;;;;;;;0.93;0.93;;;6.90;99.90;;;;;;4958879;28;20552;-68
2020/12/24 06:14:49;;;;;;;1.23;0.90;;;6.90;99.90;;;;;;4958991;28;20197;-68
2020/12/24 06:17:16;;;;;;;1.38;0.55;;;6.90;99.90;;;;;;4958784;28;20236;-67
2020/12/24 06:19:44;;;;;;;3.15;1.17;;;6.90;99.90;;;;;;4959017;28;20567;-68
2020/12/24 06:22:10;;;;;;;0.90;0.90;;;7.00;99.80;;;;;;4958544;28;20181;-68
2020/12/24 06:24:51;;;;;;;1.52;1.05;;;7.00;99.60;;;;;;4958865;28;20214;-67
2020/12/24 06:27:29;;;;;;;1.30;1.00;;;7.10;99.20;;;;;;4958834;28;20566;-68
2020/12/24 06:30:01;;;;;;;3.35;1.13;;;7.10;98.90;;;;;;4958938;28;20636;-68
2020/12/24 06:32:28;;;;;;;1.50;0.65;;;7.00;99.20;;;;;;4958882;28;20185;-67
2020/12/24 06:34:54;;;;;;;1.30;0.95;;;7.10;99.20;;;;;;4958634;28;20193;-67
2020/12/24 06:37:20;;;;;;;1.73;0.90;;;7.10;99.00;;;;;;4958597;28;20194;-68
2020/12/24 06:39:53;;;;;;;4.53;1.05;;;7.30;98.80;;;;;;4958314;28;20193;-68
2020/12/24 06:42:37;;;;;;;0.75;0.75;;;7.20;98.50;;;;;;4958328;28;20178;-68
2020/12/24 06:45:10;;;;;;;2.75;1.05;;;7.30;98.70;;;;;;4958364;28;20285;-67
2020/12/24 06:47:37;;;;;;;1.67;0.90;;;7.20;98.80;;;;;;4958300;28;20237;-67
2020/12/24 06:50:48;;;;;;;6.20;4.85;;;7.20;99.00;;;;;;4958237;28;20176;-67
2020/12/24 06:53:23;;;;;;;2.83;1.38;;;7.20;98.40;;;;;;4956862;29;20186;-67
2020/12/24 06:56:21;;;;;;;3.72;3.05;;;7.00;98.80;;;;;;4958383;28;20575;-68
2020/12/24 06:58:56;;;;;;;2.53;1.23;;;7.00;99.10;;;;;;4958088;28;20190;-68
2020/12/24 07:01:26;;;;;;;3.50;3.13;;;7.00;99.50;;;;;;4958088;28;20177;-68
2020/12/24 07:03:54;;;;;;;1.73;1.23;;;6.90;99.50;;;;;;4958356;28;20323;-68
2020/12/24 07:06:41;;;;;;;20.52;7.15;;;7.00;99.90;;;;;;4957945;28;20239;-68
2020/12/24 07:09:11;;;;;;;15.10;7.25;;;7.00;99.60;;;;;;4958369;28;20170;-68
2020/12/24 07:11:41;;;;;;;3.00;2.80;;;7.00;99.90;;;;;;4957723;28;20188;-68
2020/12/24 07:14:25;;;;;;;2.00;1.05;;;6.90;98.20;;;;;;4956834;28;20531;-67
2020/12/24 07:16:52;;;;;;;3.10;1.38;;;6.60;98.30;;;;;;4957972;28;20197;-67
2020/12/24 07:19:21;;;;;;;5.18;4.68;;;6.50;98.80;;;;;;4957667;28;20197;-67
2020/12/24 07:21:52;;;;;;;0.63;0.63;;;6.60;99.00;;;;;;4957663;28;20248;-68
2020/12/24 07:24:26;;;;;;;2.83;2.08;;;6.70;98.70;;;;;;4957642;28;20225;-68
2020/12/24 07:26:56;;;;;;;2.65;2.30;;;6.80;98.10;;;;;;4957745;28;20193;-67
2020/12/24 07:29:24;;;;;;;1.67;1.58;;;6.60;97.90;;;;;;4957541;28;20177;-67
2020/12/24 07:31:50;;;;;;;2.67;1.90;;;6.70;98.20;;;;;;4957537;28;20253;-68
2020/12/24 07:34:29;;;;;;;0.70;0.70;;;6.70;98.20;;;;;;4957492;28;20206;-67
2020/12/24 07:36:54;;;;;;;3.20;1.20;;;6.70;97.40;;;;;;4957592;28;20198;-68
2020/12/24 07:39:20;;;;;;;1.83;0.90;;;6.70;97.70;;;;;;4957347;28;20193;-67
2020/12/24 07:41:47;;;;;;;3.50;3.23;;;6.80;97.80;;;;;;4957219;28;20193;-67
2020/12/24 07:44:16;;;;;;;1.67;1.23;;;6.80;97.70;;;;;;4957370;28;20409;-68
2020/12/24 07:46:42;;;;;;;0.70;0.70;;;6.80;97.20;;;;;;4957137;28;20202;-68
2020/12/24 07:49:08;;;;;;;1.85;0.77;;;6.70;97.90;;;;;;4957263;28;20660;-67
2020/12/24 07:51:34;;;;;;;1.63;0.83;;;6.60;98.00;;;;;;4956961;28;20177;-68
2020/12/24 07:54:15;;;;;;;4.53;1.30;;;6.40;97.80;;;;;;4957172;28;20174;-67
2020/12/24 07:56:45;;;;;;;1.15;1.10;;;6.40;98.00;;;;;;4957161;28;20224;-67
2020/12/24 07:59:12;;;;;;;0.68;0.65;;;6.50;97.70;;;;;;4956989;28;20261;-68
2020/12/24 08:01:38;;;;;;;0.73;0.68;;;6.60;98.00;;;;;;4956836;28;20221;-68
2020/12/24 08:04:05;;;;;;;2.23;1.30;;;6.80;97.80;;;;;;4956951;28;20651;-67
2020/12/24 08:06:34;;;;;;;4.30;0.80;;;6.80;97.00;;;;;;4956945;28;20557;-68
2020/12/24 08:09:17;;;;;;;1.52;0.70;;;6.90;96.90;;;;;;4956842;28;20256;-68
2020/12/24 08:11:52;;;;;;;2.35;1.10;;;7.10;96.90;;;;;;4956834;28;20242;-67
2020/12/24 08:14:25;;;;;;;1.90;0.82;;;7.20;96.80;;;;;;4957160;28;20225;-67
2020/12/24 08:16:52;;;;;;;3.42;0.65;;;7.10;98.10;;;;;;4955387;28;20209;-68
2020/12/24 08:19:20;;;;;;;0.77;0.75;;;7.10;97.80;;;;;;4956657;28;20544;-67
2020/12/24 08:22:12;;;;;;;3.15;0.85;;;7.20;97.60;;;;;;4956438;28;20245;-68
2020/12/24 08:24:39;;;;;;;3.58;0.80;;;7.10;98.30;;;;;;4956476;28;20210;-67
2020/12/24 08:27:05;;;;;;;1.67;1.00;;;7.10;97.90;;;;;;4956511;28;20561;-67
2020/12/24 08:29:31;;;;;;;1.10;1.02;;;7.30;97.80;;;;;;4956444;28;20260;-68
2020/12/24 08:31:57;;;;;;;1.43;0.70;;;7.20;97.50;;;;;;4956367;28;20257;-68
2020/12/24 08:34:23;;;;;;;1.55;0.90;;;7.40;98.60;;;;;;4956394;28;20918;-67
2020/12/24 08:36:49;;;;;;;1.90;0.80;;;7.60;97.90;;;;;;4956228;28;20213;-68
2020/12/24 08:39:19;;;;;;;2.28;1.30;;;7.60;97.80;;;;;;4956321;28;20430;-68
2020/12/24 08:41:46;;;;;;;2.13;1.70;;;7.70;97.70;;;;;;4956054;28;20186;-68
2020/12/24 08:44:17;;;;;;;2.65;1.27;;;7.60;97.60;;;;;;4956228;28;20171;-68
2020/12/24 08:46:43;;;;;;;1.42;0.77;;;7.60;97.70;;;;;;4956210;28;20281;-68
2020/12/24 08:49:22;;;;;;;1.65;0.80;;;7.50;98.50;;;;;;4956124;28;20170;-67
2020/12/24 08:51:48;;;;;;;1.95;1.10;;;7.40;98.60;;;;;;4956189;28;20640;-68
2020/12/24 08:54:14;;;;;;;1.20;0.73;;;7.20;98.10;;;;;;4956090;28;20177;-67
2020/12/24 08:56:43;;;;;;;3.83;3.40;;;7.10;98.80;;;;;;4955959;28;20587;-67
2020/12/24 08:59:13;;;;;;;1.65;1.55;;;7.00;98.60;;;;;;4955957;28;20174;-68
2020/12/24 09:01:40;;;;;;;4.30;1.23;;;6.60;99.40;;;;;;4955982;28;20170;-67
2020/12/24 09:04:18;;;;;;;1.05;0.88;;;6.50;99.70;;;;;;4955811;28;20217;-67
2020/12/24 09:06:45;;;;;;;9.10;4.72;;;6.70;99.50;;;;;;4955791;28;20350;-68
2020/12/24 09:09:25;;;;;;;0.85;0.85;;;6.70;99.40;;;;;;4955850;28;20177;-68
2020/12/24 09:11:54;;;;;;;1.25;1.15;;;6.70;99.70;;;;;;4955623;28;20239;-68
2020/12/24 09:14:22;;;;;;;0.70;0.60;;;6.70;99.80;;;;;;4955708;28;20195;-67
2020/12/24 09:16:58;;;;;;;9.57;6.32;;;6.50;99.90;;;;;;4955559;28;20211;-67
2020/12/24 09:19:24;;;;;;;1.17;0.80;;;6.50;99.40;;;;;;4955719;28;20161;-68
2020/12/24 09:21:58;;;;;;;1.13;1.00;;;6.30;99.80;;;;;;4955455;28;20644;-67
2020/12/24 09:24:25;;;;;;;3.78;3.47;;;6.30;99.90;;;;;;4955651;28;20202;-68
2020/12/24 09:26:53;;;;;;;3.13;2.40;;;6.40;99.90;;;;;;4955622;28;20193;-68
2020/12/24 09:29:21;;;;;;;3.15;2.88;;;6.60;99.90;;;;;;4955617;28;20595;-68
2020/12/24 09:32:13;;;;;;;1.30;1.15;;;6.70;99.90;;;;;;4955318;28;20181;-68
2020/12/24 09:34:39;;;;;;;4.70;2.55;;;6.70;99.50;;;;;;4954723;28;20190;-67
2020/12/24 09:37:04;;;;;;;1.07;0.60;;;6.60;99.50;;;;;;4954680;28;20676;-68
2020/12/24 09:39:30;;;;;;;2.50;1.10;;;6.50;99.50;;;;;;4955785;28;20338;-67
2020/12/24 09:41:56;;;;;;;1.47;0.83;;;6.40;99.60;;;;;;4955238;28;20170;-67
2020/12/24 09:44:21;;;;;;;1.23;1.13;;;6.30;99.90;;;;;;4955403;28;20181;-68
2020/12/24 09:46:48;;;;;;;5.03;2.50;;;6.20;99.90;;;;;;4955369;28;20536;-67
2020/12/24 09:49:13;;;;;;;0.90;0.90;;;6.30;99.90;;;;;;4955278;28;20174;-67
2020/12/24 09:51:39;;;;;;;5.53;1.30;;;6.20;99.90;;;;;;4955407;28;20263;-68
2020/12/24 09:54:05;;;;;;;5.63;1.33;;;6.20;99.90;;;;;;4955476;28;20217;-67
2020/12/24 09:56:32;;;;;;;2.00;1.90;;;6.20;99.90;;;;;;4955180;28;20213;-68
2020/12/24 09:58:58;;;;;;;0.60;0.60;;;6.20;99.90;;;;;;4955245;28;20174;-67
2020/12/24 10:01:24;;;;;;;1.00;0.90;;;6.10;99.90;;;;;;4955085;28;20178;-67
2020/12/24 10:03:49;;;;;;;0.93;0.90;;;6.10;99.90;;;;;;4955319;28;20177;-68
2020/12/24 10:06:15;;;;;;;0.80;0.70;;;6.00;99.90;;;;;;4954929;28;20548;-68
2020/12/24 10:08:41;;;;;;;1.93;1.00;;;6.10;99.90;;;;;;4955268;28;20209;-68
2020/12/24 10:11:14;;;;;;;0.80;0.60;;;6.20;99.90;;;;;;4955058;28;20249;-68
2020/12/24 10:13:40;;;;;;;1.90;0.70;;;6.20;99.90;;;;;;4955226;28;20405;-68
2020/12/24 10:16:06;;;;;;;1.03;0.70;;;6.10;99.90;;;;;;4955139;28;20265;-67
2020/12/24 10:18:32;;;;;;;1.00;0.77;;;6.20;99.90;;;;;;4955022;28;20205;-68
2020/12/24 10:20:57;;;;;;;1.03;0.80;;;6.30;99.90;;;;;;4955055;28;20550;-68
2020/12/24 10:23:23;;;;;;;1.63;1.40;;;6.40;99.90;;;;;;4955055;28;20405;-68
2020/12/24 10:25:49;;;;;;;1.17;1.00;;;6.60;99.90;;;;;;4955015;28;20663;-68
2020/12/24 10:28:14;;;;;;;2.03;1.10;;;6.70;99.90;;;;;;4954912;28;20243;-68
2020/12/24 10:30:42;;;;;;;1.07;0.60;;;6.90;99.90;;;;;;4954978;28;20227;-68
2020/12/24 10:33:08;;;;;;;3.28;1.58;;;7.10;99.90;;;;;;4954620;28;20184;-68
2020/12/24 10:35:36;;;;;;;17.57;10.90;;;7.10;99.90;;;;;;4955185;28;20185;-68
2020/12/24 10:38:03;;;;;;;3.95;2.00;;;7.20;99.90;;;;;;4954829;28;20205;-68
2020/12/24 10:40:28;;;;;;;1.05;0.93;;;7.30;99.90;;;;;;4954950;28;20189;-68
2020/12/24 10:42:54;;;;;;;1.07;0.93;;;7.30;99.90;;;;;;4953519;28;20195;-68
2020/12/24 10:45:19;;;;;;;6.00;1.33;;;7.40;99.90;;;;;;4954941;28;20202;-68
2020/12/24 10:47:45;;;;;;;1.70;1.60;;;7.30;99.30;;;;;;4954961;28;20191;-69
2020/12/24 10:50:11;;;;;;;1.07;1.07;;;7.10;99.80;;;;;;4958317;28;20175;-68
2020/12/24 10:52:37;;;;;;;1.33;1.17;;;7.20;99.90;;;;;;4958128;28;20249;-69
2020/12/24 10:55:03;;;;;;;0.73;0.60;;;7.40;99.80;;;;;;4958393;28;20905;-68
2020/12/24 10:57:29;;;;;;;1.65;1.33;;;7.60;99.70;;;;;;4958163;28;20205;-68
2020/12/24 10:59:54;;;;;;;0.70;0.63;;;7.70;99.60;;;;;;4958082;28;20174;-68
2020/12/24 11:02:20;;;;;;;0.70;0.70;;;7.50;99.40;;;;;;4957923;28;20554;-68
2020/12/24 11:04:45;;;;;;;0.50;0.50;;;7.60;99.20;;;;;;4958317;28;20202;-68
2020/12/24 11:07:11;;;;;;;4.97;2.90;;;7.50;99.40;;;;;;4957888;28;20193;-68
2020/12/24 11:09:37;;;;;;;1.50;1.40;;;7.40;98.80;;;;;;4958013;28;20176;-68
2020/12/24 11:12:03;;;;;;;1.60;0.97;;;7.50;98.80;;;;;;4957768;28;20205;-68
2020/12/24 11:14:29;;;;;;;1.60;1.50;;;7.40;99.20;;;;;;4958066;28;20174;-68
2020/12/24 11:16:58;;;;;;;0.60;0.60;;;7.50;99.00;;;;;;4957881;28;20189;-68
2020/12/24 11:19:23;;;;;;;0.85;0.73;;;7.40;99.30;;;;;;4957824;28;20197;-68
2020/12/24 11:21:49;;;;;;;0.80;0.70;;;7.10;99.30;;;;;;4957578;28;20211;-68
2020/12/24 11:24:15;;;;;;;5.47;0.90;;;7.00;99.30;;;;;;4957674;28;20177;-68
2020/12/24 11:26:41;;;;;;;0.67;0.67;;;7.10;99.70;;;;;;4957602;28;20205;-68
2020/12/24 11:29:08;;;;;;;3.53;0.73;;;7.10;99.90;;;;;;4957641;28;20166;-69
2020/12/24 11:31:36;;;;;;;0.90;0.73;;;7.20;99.90;;;;;;4957440;28;20248;-68
2020/12/24 11:34:02;;;;;;;0.95;0.75;;;7.30;99.40;;;;;;4957674;28;20193;-69
2020/12/24 11:36:28;;;;;;;4.33;1.37;;;7.40;99.20;;;;;;4957609;28;20707;-68
2020/12/24 11:38:54;;;;;;;2.10;2.00;;;7.10;99.90;;;;;;4957390;28;20424;-68
2020/12/24 11:41:23;;;;;;;3.63;3.05;;;7.40;99.90;;;;;;4957291;28;20179;-68
2020/12/24 11:43:50;;;;;;;3.63;1.27;;;7.30;99.90;;;;;;4957477;28;20236;-68
2020/12/24 11:46:17;;;;;;;2.15;1.67;;;7.30;99.70;;;;;;4957143;28;20618;-68
2020/12/24 11:48:43;;;;;;;2.08;1.20;;;7.30;99.90;;;;;;4957263;28;20201;-68
2020/12/24 11:51:10;;;;;;;1.40;1.08;;;7.40;99.70;;;;;;4957209;28;20267;-68
2020/12/24 11:53:36;;;;;;;1.02;0.93;;;7.20;99.70;;;;;;4956023;29;20184;-68
2020/12/24 11:56:03;;;;;;;0.93;0.80;;;7.10;99.90;;;;;;4957220;28;20183;-68
2020/12/24 11:58:28;;;;;;;0.80;0.70;;;7.30;99.90;;;;;;4956987;28;20218;-69
2020/12/24 12:00:54;;;;;;;1.93;0.90;;;7.20;99.90;;;;;;4956224;28;20210;-68
2020/12/24 12:03:20;;;;;;;0.80;0.70;;;7.30;99.90;;;;;;4956978;28;20224;-68
2020/12/24 12:05:46;;;;;;;1.50;0.67;;;7.30;99.90;;;;;;4956953;28;20242;-68
2020/12/24 12:08:11;;;;;;;2.00;0.83;;;7.30;99.80;;;;;;4956919;28;20207;-68
2020/12/24 12:10:37;;;;;;;0.50;0.50;;;7.10;99.90;;;;;;4957029;28;20170;-68
2020/12/24 12:13:03;;;;;;;2.17;0.90;;;6.90;99.70;;;;;;4955274;28;20178;-68
2020/12/24 12:15:29;;;;;;;0.50;0.50;;;6.90;99.70;;;;;;4956719;28;20171;-68
2020/12/24 12:17:54;;;;;;;0.70;0.70;;;6.90;99.60;;;;;;4956621;28;20193;-68
2020/12/24 12:20:20;;;;;;;0.80;0.80;;;7.00;99.90;;;;;;4956566;28;20193;-68
2020/12/24 12:22:49;;;;;;;8.53;1.00;;;7.00;99.90;;;;;;4956513;28;20597;-68
2020/12/24 12:25:15;;;;;;;0.73;0.73;;;6.90;99.80;;;;;;4956533;28;20200;-68
2020/12/24 12:27:44;;;;;;;6.53;5.95;;;6.80;99.80;;;;;;4956554;28;20563;-68
2020/12/24 12:30:10;;;;;;;0.82;0.82;;;6.80;99.90;;;;;;4956609;28;20529;-69
2020/12/24 12:32:35;;;;;;;0.70;0.70;;;6.70;99.90;;;;;;4956307;28;20178;-68
2020/12/24 12:35:01;;;;;;;1.00;1.00;;;6.60;99.90;;;;;;4956575;29;20690;-68
2020/12/24 12:37:26;;;;;;;0.60;0.60;;;6.60;99.90;;;;;;4956372;28;20193;-68
2020/12/24 12:39:52;;;;;;;8.80;3.40;;;6.80;99.90;;;;;;4956330;28;20237;-68
2020/12/24 12:42:18;;;;;;;2.73;1.10;;;6.80;99.90;;;;;;4956094;28;20179;-68
2020/12/24 12:44:44;;;;;;;0.60;0.60;;;6.80;99.90;;;;;;4956342;28;20274;-68
2020/12/24 12:47:10;;;;;;;0.43;0.43;;;6.80;99.90;;;;;;4956098;28;20218;-68
2020/12/24 12:49:36;;;;;;;1.53;1.27;;;6.60;99.90;;;;;;4956226;28;20402;-68
2020/12/24 12:52:03;;;;;;;0.50;0.50;;;6.30;99.90;;;;;;4955905;28;20771;-69
2020/12/24 12:54:28;;;;;;;0.70;0.60;;;6.50;99.90;;;;;;4956223;28;20171;-68
2020/12/24 12:56:54;;;;;;;2.53;0.90;;;6.50;99.90;;;;;;4956043;28;20241;-68
2020/12/24 12:59:20;;;;;;;0.80;0.80;;;6.60;99.90;;;;;;4956000;28;20200;-68
2020/12/24 13:01:45;;;;;;;1.30;1.30;;;6.50;99.90;;;;;;4955808;28;20201;-68
2020/12/24 13:04:11;;;;;;;1.87;0.57;;;6.70;99.90;;;;;;4955969;28;20196;-68